sensor_id;sensor_type;location;lat;lon;timestamp;P1;durP1;ratioP1;P2;durP2;ratioP2
56321;SDS011;42227;6.376;-10.782;2022-10-16T00:01:41;8.63;;;4.53;;
56321;SDS011;42227;6.376;-10.782;2022-10-16T00:04:10;8.80;;;4.80;;
56321;SDS011;42227;6.376;-10.782;2022-10-16T00:06:38;11.27;;;4.32;;
56321;SDS011;42227;6.376;-10.782;2022-10-16T00:09:07;8.18;;;3.97;;
56321;SDS011;42227;6.376;-10.782;2022-10-16T00:11:35;8.43;;;4.10;;
56321;SDS011;42227;6.376;-10.782;2022-10-16T00:14:07;4.70;;;3.95;;
56321;SDS011;42227;6.376;-10.782;2022-10-16T00:16:41;8.30;;;5.07;;
56321;SDS011;42227;6.376;-10.782;2022-10-16T00:19:10;7.50;;;4.72;;
56321;SDS011;42227;6.376;-10.782;2022-10-16T00:21:39;10.77;;;5.47;;
56321;SDS011;42227;6.376;-10.782;2022-10-16T00:24:09;12.00;;;5.55;;
56321;SDS011;42227;6.376;-10.782;2022-10-16T00:26:38;14.82;;;7.88;;
56321;SDS011;42227;6.376;-10.782;2022-10-16T00:29:07;11.68;;;5.43;;
56321;SDS011;42227;6.376;-10.782;2022-10-16T00:31:36;14.25;;;6.50;;
56321;SDS011;42227;6.376;-10.782;2022-10-16T00:34:04;8.98;;;5.55;;
56321;SDS011;42227;6.376;-10.782;2022-10-16T00:36:32;16.95;;;6.38;;
56321;SDS011;42227;6.376;-10.782;2022-10-16T00:39:01;17.42;;;5.45;;
56321;SDS011;42227;6.376;-10.782;2022-10-16T00:41:29;6.90;;;5.40;;
56321;SDS011;42227;6.376;-10.782;2022-10-16T00:43:59;12.27;;;6.07;;
56321;SDS011;42227;6.376;-10.782;2022-10-16T00:46:31;9.57;;;6.38;;
56321;SDS011;42227;6.376;-10.782;2022-10-16T00:49:12;9.27;;;6.00;;
56321;SDS011;42227;6.376;-10.782;2022-10-16T00:56:48;12.52;;;6.95;;
56321;SDS011;42227;6.376;-10.782;2022-10-16T00:59:24;12.82;;;6.95;;
56321;SDS011;42227;6.376;-10.782;2022-10-16T01:02:11;7.13;;;5.97;;
56321;SDS011;42227;6.376;-10.782;2022-10-16T01:04:49;15.98;;;6.47;;
56321;SDS011;42227;6.376;-10.782;2022-10-16T01:10:30;9.98;;;5.38;;
56321;SDS011;42227;6.376;-10.782;2022-10-16T01:13:20;16.70;;;5.43;;
56321;SDS011;42227;6.376;-10.782;2022-10-16T01:15:54;7.88;;;5.45;;
56321;SDS011;42227;6.376;-10.782;2022-10-16T01:18:35;12.60;;;6.45;;
56321;SDS011;42227;6.376;-10.782;2022-10-16T01:21:23;12.82;;;6.00;;
56321;SDS011;42227;6.376;-10.782;2022-10-16T01:32:45;9.38;;;5.78;;
56321;SDS011;42227;6.376;-10.782;2022-10-16T01:35:25;16.08;;;6.97;;
56321;SDS011;42227;6.376;-10.782;2022-10-16T01:38:33;14.13;;;6.85;;
56321;SDS011;42227;6.376;-10.782;2022-10-16T01:41:15;8.27;;;6.75;;
56321;SDS011;42227;6.376;-10.782;2022-10-16T01:44:06;10.18;;;7.70;;
56321;SDS011;42227;6.376;-10.782;2022-10-16T01:46:40;13.40;;;7.07;;
56321;SDS011;42227;6.376;-10.782;2022-10-16T01:49:10;15.98;;;7.25;;
56321;SDS011;42227;6.376;-10.782;2022-10-16T01:51:40;8.40;;;7.22;;
56321;SDS011;42227;6.376;-10.782;2022-10-16T01:54:12;14.88;;;8.48;;
56321;SDS011;42227;6.376;-10.782;2022-10-16T01:56:43;15.13;;;7.95;;
56321;SDS011;42227;6.376;-10.782;2022-10-16T01:59:14;14.63;;;6.72;;
56321;SDS011;42227;6.376;-10.782;2022-10-16T02:01:47;9.90;;;6.10;;
56321;SDS011;42227;6.376;-10.782;2022-10-16T02:04:23;8.55;;;7.05;;
56321;SDS011;42227;6.376;-10.782;2022-10-16T02:07:01;12.45;;;6.63;;
56321;SDS011;42227;6.376;-10.782;2022-10-16T02:09:30;14.75;;;7.00;;
56321;SDS011;42227;6.376;-10.782;2022-10-16T02:12:03;8.85;;;5.85;;
56321;SDS011;42227;6.376;-10.782;2022-10-16T02:14:38;8.90;;;6.65;;
56321;SDS011;42227;6.376;-10.782;2022-10-16T02:17:14;11.02;;;7.10;;
56321;SDS011;42227;6.376;-10.782;2022-10-16T02:19:45;10.10;;;5.82;;
56321;SDS011;42227;6.376;-10.782;2022-10-16T02:22:21;11.95;;;7.22;;
56321;SDS011;42227;6.376;-10.782;2022-10-16T02:30:35;11.88;;;6.30;;
56321;SDS011;42227;6.376;-10.782;2022-10-16T02:33:10;15.45;;;6.35;;
56321;SDS011;42227;6.376;-10.782;2022-10-16T02:35:40;22.58;;;6.15;;
56321;SDS011;42227;6.376;-10.782;2022-10-16T02:38:11;12.55;;;7.05;;
56321;SDS011;42227;6.376;-10.782;2022-10-16T02:40:41;6.45;;;5.60;;
56321;SDS011;42227;6.376;-10.782;2022-10-16T02:43:10;17.08;;;6.82;;
56321;SDS011;42227;6.376;-10.782;2022-10-16T02:45:38;7.03;;;5.70;;
56321;SDS011;42227;6.376;-10.782;2022-10-16T02:48:07;8.20;;;6.15;;
56321;SDS011;42227;6.376;-10.782;2022-10-16T02:50:35;9.77;;;5.90;;
56321;SDS011;42227;6.376;-10.782;2022-10-16T02:53:03;7.25;;;5.32;;
56321;SDS011;42227;6.376;-10.782;2022-10-16T02:55:31;9.18;;;4.90;;
56321;SDS011;42227;6.376;-10.782;2022-10-16T02:58:00;7.28;;;4.30;;
56321;SDS011;42227;6.376;-10.782;2022-10-16T03:00:28;6.80;;;4.10;;
56321;SDS011;42227;6.376;-10.782;2022-10-16T03:02:56;12.20;;;5.75;;
56321;SDS011;42227;6.376;-10.782;2022-10-16T03:05:24;6.97;;;4.45;;
56321;SDS011;42227;6.376;-10.782;2022-10-16T03:07:52;7.97;;;4.90;;
56321;SDS011;42227;6.376;-10.782;2022-10-16T03:10:20;19.95;;;7.13;;
56321;SDS011;42227;6.376;-10.782;2022-10-16T03:12:48;25.30;;;8.93;;
56321;SDS011;42227;6.376;-10.782;2022-10-16T03:15:17;15.10;;;8.93;;
56321;SDS011;42227;6.376;-10.782;2022-10-16T03:17:45;14.85;;;8.68;;
56321;SDS011;42227;6.376;-10.782;2022-10-16T03:20:13;17.83;;;8.18;;
56321;SDS011;42227;6.376;-10.782;2022-10-16T03:22:41;14.90;;;8.25;;
56321;SDS011;42227;6.376;-10.782;2022-10-16T03:25:09;15.23;;;7.63;;
56321;SDS011;42227;6.376;-10.782;2022-10-16T03:27:38;11.68;;;7.70;;
56321;SDS011;42227;6.376;-10.782;2022-10-16T03:30:06;13.13;;;6.85;;
56321;SDS011;42227;6.376;-10.782;2022-10-16T03:32:35;12.27;;;4.93;;
56321;SDS011;42227;6.376;-10.782;2022-10-16T03:35:03;6.00;;;4.15;;
56321;SDS011;42227;6.376;-10.782;2022-10-16T03:37:31;9.60;;;4.10;;
56321;SDS011;42227;6.376;-10.782;2022-10-16T03:40:00;5.70;;;2.40;;
56321;SDS011;42227;6.376;-10.782;2022-10-16T03:42:28;6.43;;;2.95;;
56321;SDS011;42227;6.376;-10.782;2022-10-16T03:44:56;5.47;;;2.22;;
56321;SDS011;42227;6.376;-10.782;2022-10-16T03:47:24;5.20;;;3.30;;
56321;SDS011;42227;6.376;-10.782;2022-10-16T03:49:53;6.97;;;2.90;;
56321;SDS011;42227;6.376;-10.782;2022-10-16T03:52:21;6.50;;;3.10;;
56321;SDS011;42227;6.376;-10.782;2022-10-16T03:54:50;5.65;;;2.72;;
56321;SDS011;42227;6.376;-10.782;2022-10-16T03:57:18;6.78;;;3.20;;
56321;SDS011;42227;6.376;-10.782;2022-10-16T03:59:46;5.70;;;3.55;;
56321;SDS011;42227;6.376;-10.782;2022-10-16T04:02:14;9.48;;;2.50;;
56321;SDS011;42227;6.376;-10.782;2022-10-16T04:04:42;4.90;;;2.42;;
56321;SDS011;42227;6.376;-10.782;2022-10-16T04:07:10;3.17;;;2.47;;
56321;SDS011;42227;6.376;-10.782;2022-10-16T04:09:39;7.55;;;2.45;;
56321;SDS011;42227;6.376;-10.782;2022-10-16T04:12:07;5.10;;;2.58;;
56321;SDS011;42227;6.376;-10.782;2022-10-16T04:14:35;8.27;;;3.35;;
56321;SDS011;42227;6.376;-10.782;2022-10-16T04:17:03;9.60;;;3.75;;
56321;SDS011;42227;6.376;-10.782;2022-10-16T04:19:31;12.55;;;3.72;;
56321;SDS011;42227;6.376;-10.782;2022-10-16T04:22:00;8.38;;;2.70;;
56321;SDS011;42227;6.376;-10.782;2022-10-16T04:24:28;6.70;;;3.33;;
56321;SDS011;42227;6.376;-10.782;2022-10-16T04:26:56;11.30;;;4.13;;
56321;SDS011;42227;6.376;-10.782;2022-10-16T04:29:24;7.28;;;3.72;;
56321;SDS011;42227;6.376;-10.782;2022-10-16T04:31:52;10.70;;;4.20;;
56321;SDS011;42227;6.376;-10.782;2022-10-16T04:34:21;11.27;;;4.13;;
56321;SDS011;42227;6.376;-10.782;2022-10-16T04:36:49;5.03;;;3.53;;
56321;SDS011;42227;6.376;-10.782;2022-10-16T04:39:17;18.45;;;4.57;;
56321;SDS011;42227;6.376;-10.782;2022-10-16T04:41:45;6.25;;;4.07;;
56321;SDS011;42227;6.376;-10.782;2022-10-16T04:44:13;5.38;;;3.63;;
56321;SDS011;42227;6.376;-10.782;2022-10-16T04:46:42;7.80;;;4.88;;
56321;SDS011;42227;6.376;-10.782;2022-10-16T04:49:10;7.15;;;5.00;;
56321;SDS011;42227;6.376;-10.782;2022-10-16T04:51:38;8.93;;;4.57;;
56321;SDS011;42227;6.376;-10.782;2022-10-16T04:54:06;8.93;;;4.07;;
56321;SDS011;42227;6.376;-10.782;2022-10-16T04:56:35;6.78;;;4.32;;
56321;SDS011;42227;6.376;-10.782;2022-10-16T04:59:03;5.80;;;2.97;;
56321;SDS011;42227;6.376;-10.782;2022-10-16T05:01:32;9.52;;;3.85;;
56321;SDS011;42227;6.376;-10.782;2022-10-16T05:04:00;7.63;;;4.00;;
56321;SDS011;42227;6.376;-10.782;2022-10-16T05:06:28;6.72;;;4.65;;
56321;SDS011;42227;6.376;-10.782;2022-10-16T05:08:56;6.18;;;3.67;;
56321;SDS011;42227;6.376;-10.782;2022-10-16T05:11:25;12.57;;;4.32;;
56321;SDS011;42227;6.376;-10.782;2022-10-16T05:13:53;12.73;;;4.57;;
56321;SDS011;42227;6.376;-10.782;2022-10-16T05:16:21;7.63;;;3.65;;
56321;SDS011;42227;6.376;-10.782;2022-10-16T05:18:51;9.65;;;5.50;;
56321;SDS011;42227;6.376;-10.782;2022-10-16T05:21:36;9.65;;;5.25;;
56321;SDS011;42227;6.376;-10.782;2022-10-16T05:24:04;10.80;;;5.03;;
56321;SDS011;42227;6.376;-10.782;2022-10-16T05:26:32;8.52;;;4.63;;
56321;SDS011;42227;6.376;-10.782;2022-10-16T05:29:00;7.43;;;5.13;;
56321;SDS011;42227;6.376;-10.782;2022-10-16T05:31:29;9.20;;;5.18;;
56321;SDS011;42227;6.376;-10.782;2022-10-16T05:34:00;5.85;;;4.28;;
56321;SDS011;42227;6.376;-10.782;2022-10-16T05:36:28;10.68;;;5.15;;
56321;SDS011;42227;6.376;-10.782;2022-10-16T05:38:56;8.23;;;4.43;;
56321;SDS011;42227;6.376;-10.782;2022-10-16T05:41:24;21.35;;;5.32;;
56321;SDS011;42227;6.376;-10.782;2022-10-16T05:43:53;6.45;;;4.75;;
56321;SDS011;42227;6.376;-10.782;2022-10-16T05:46:21;6.60;;;5.07;;
56321;SDS011;42227;6.376;-10.782;2022-10-16T05:48:51;6.68;;;4.72;;
56321;SDS011;42227;6.376;-10.782;2022-10-16T05:51:20;10.77;;;6.00;;
56321;SDS011;42227;6.376;-10.782;2022-10-16T05:53:47;8.90;;;5.20;;
56321;SDS011;42227;6.376;-10.782;2022-10-16T05:56:16;8.77;;;4.78;;
56321;SDS011;42227;6.376;-10.782;2022-10-16T05:58:45;10.30;;;6.53;;
56321;SDS011;42227;6.376;-10.782;2022-10-16T06:01:14;15.10;;;6.50;;
56321;SDS011;42227;6.376;-10.782;2022-10-16T06:03:44;8.50;;;4.95;;
56321;SDS011;42227;6.376;-10.782;2022-10-16T06:06:16;9.48;;;5.30;;
56321;SDS011;42227;6.376;-10.782;2022-10-16T06:08:49;8.65;;;5.88;;
56321;SDS011;42227;6.376;-10.782;2022-10-16T06:11:25;7.22;;;5.28;;
56321;SDS011;42227;6.376;-10.782;2022-10-16T06:13:56;7.07;;;5.28;;
56321;SDS011;42227;6.376;-10.782;2022-10-16T06:16:26;7.75;;;5.47;;
56321;SDS011;42227;6.376;-10.782;2022-10-16T06:18:55;7.80;;;5.65;;
56321;SDS011;42227;6.376;-10.782;2022-10-16T06:21:24;9.15;;;5.97;;
56321;SDS011;42227;6.376;-10.782;2022-10-16T06:23:53;10.75;;;6.28;;
56321;SDS011;42227;6.376;-10.782;2022-10-16T06:26:25;10.95;;;6.45;;
56321;SDS011;42227;6.376;-10.782;2022-10-16T06:28:55;13.77;;;6.38;;
56321;SDS011;42227;6.376;-10.782;2022-10-16T06:31:25;9.50;;;7.07;;
56321;SDS011;42227;6.376;-10.782;2022-10-16T06:33:54;12.88;;;6.95;;
56321;SDS011;42227;6.376;-10.782;2022-10-16T06:36:22;11.77;;;6.82;;
56321;SDS011;42227;6.376;-10.782;2022-10-16T06:38:51;10.05;;;7.18;;
56321;SDS011;42227;6.376;-10.782;2022-10-16T06:41:20;8.57;;;5.55;;
56321;SDS011;42227;6.376;-10.782;2022-10-16T06:43:49;8.45;;;6.05;;
56321;SDS011;42227;6.376;-10.782;2022-10-16T06:46:19;17.23;;;5.93;;
56321;SDS011;42227;6.376;-10.782;2022-10-16T06:48:49;9.02;;;7.15;;
56321;SDS011;42227;6.376;-10.782;2022-10-16T06:51:18;12.20;;;5.90;;
56321;SDS011;42227;6.376;-10.782;2022-10-16T06:53:48;12.40;;;6.22;;
56321;SDS011;42227;6.376;-10.782;2022-10-16T06:56:33;9.15;;;6.93;;
56321;SDS011;42227;6.376;-10.782;2022-10-16T06:59:03;16.27;;;8.05;;
56321;SDS011;42227;6.376;-10.782;2022-10-16T07:01:32;13.07;;;7.25;;
56321;SDS011;42227;6.376;-10.782;2022-10-16T07:04:00;14.45;;;7.55;;
56321;SDS011;42227;6.376;-10.782;2022-10-16T07:06:30;13.63;;;8.32;;
56321;SDS011;42227;6.376;-10.782;2022-10-16T07:09:01;17.35;;;7.75;;
56321;SDS011;42227;6.376;-10.782;2022-10-16T07:11:33;11.38;;;7.13;;
56321;SDS011;42227;6.376;-10.782;2022-10-16T07:14:01;11.90;;;8.30;;
56321;SDS011;42227;6.376;-10.782;2022-10-16T07:16:31;14.02;;;8.27;;
56321;SDS011;42227;6.376;-10.782;2022-10-16T07:19:00;11.23;;;8.65;;
56321;SDS011;42227;6.376;-10.782;2022-10-16T07:21:30;15.00;;;10.38;;
56321;SDS011;42227;6.376;-10.782;2022-10-16T07:24:01;11.33;;;9.00;;
56321;SDS011;42227;6.376;-10.782;2022-10-16T07:26:31;16.58;;;9.82;;
56321;SDS011;42227;6.376;-10.782;2022-10-16T07:29:02;13.63;;;8.35;;
56321;SDS011;42227;6.376;-10.782;2022-10-16T07:31:31;11.48;;;8.25;;
56321;SDS011;42227;6.376;-10.782;2022-10-16T07:33:59;15.25;;;9.05;;
56321;SDS011;42227;6.376;-10.782;2022-10-16T07:36:28;11.32;;;9.02;;
56321;SDS011;42227;6.376;-10.782;2022-10-16T07:38:56;12.15;;;8.70;;
56321;SDS011;42227;6.376;-10.782;2022-10-16T07:41:26;16.20;;;9.05;;
56321;SDS011;42227;6.376;-10.782;2022-10-16T07:43:55;14.38;;;9.30;;
56321;SDS011;42227;6.376;-10.782;2022-10-16T07:46:24;14.27;;;9.63;;
56321;SDS011;42227;6.376;-10.782;2022-10-16T07:48:52;15.50;;;8.85;;
56321;SDS011;42227;6.376;-10.782;2022-10-16T07:51:23;21.20;;;10.55;;
56321;SDS011;42227;6.376;-10.782;2022-10-16T07:53:53;11.00;;;9.32;;
56321;SDS011;42227;6.376;-10.782;2022-10-16T07:56:22;10.85;;;9.02;;
56321;SDS011;42227;6.376;-10.782;2022-10-16T07:58:50;13.60;;;8.10;;
56321;SDS011;42227;6.376;-10.782;2022-10-16T08:01:19;14.13;;;8.27;;
56321;SDS011;42227;6.376;-10.782;2022-10-16T08:03:48;18.77;;;9.05;;
56321;SDS011;42227;6.376;-10.782;2022-10-16T08:06:18;9.38;;;7.82;;
56321;SDS011;42227;6.376;-10.782;2022-10-16T08:08:54;10.27;;;7.90;;
56321;SDS011;42227;6.376;-10.782;2022-10-16T08:11:23;10.95;;;8.70;;
56321;SDS011;42227;6.376;-10.782;2022-10-16T08:13:51;13.15;;;9.60;;
56321;SDS011;42227;6.376;-10.782;2022-10-16T08:16:20;13.02;;;9.73;;
56321;SDS011;42227;6.376;-10.782;2022-10-16T08:18:48;14.48;;;9.05;;
56321;SDS011;42227;6.376;-10.782;2022-10-16T08:21:17;18.65;;;8.65;;
56321;SDS011;42227;6.376;-10.782;2022-10-16T08:23:48;12.03;;;8.20;;
56321;SDS011;42227;6.376;-10.782;2022-10-16T08:26:24;11.55;;;10.35;;
56321;SDS011;42227;6.376;-10.782;2022-10-16T08:28:53;13.75;;;11.05;;
56321;SDS011;42227;6.376;-10.782;2022-10-16T08:31:22;16.45;;;9.52;;
56321;SDS011;42227;6.376;-10.782;2022-10-16T08:33:50;12.95;;;10.40;;
56321;SDS011;42227;6.376;-10.782;2022-10-16T08:36:18;15.57;;;9.43;;
56321;SDS011;42227;6.376;-10.782;2022-10-16T08:38:47;11.20;;;7.47;;
56321;SDS011;42227;6.376;-10.782;2022-10-16T08:47:26;12.30;;;8.75;;
56321;SDS011;42227;6.376;-10.782;2022-10-16T08:49:47;10.85;;;7.97;;
56321;SDS011;42227;6.376;-10.782;2022-10-16T08:52:29;10.40;;;6.72;;
56321;SDS011;42227;6.376;-10.782;2022-10-16T08:55:00;8.98;;;7.65;;
56321;SDS011;42227;6.376;-10.782;2022-10-16T08:57:29;9.57;;;6.82;;
56321;SDS011;42227;6.376;-10.782;2022-10-16T08:59:57;13.98;;;7.35;;
56321;SDS011;42227;6.376;-10.782;2022-10-16T09:02:34;9.63;;;6.68;;
56321;SDS011;42227;6.376;-10.782;2022-10-16T09:13:28;10.60;;;6.40;;
56321;SDS011;42227;6.376;-10.782;2022-10-16T09:21:31;19.80;;;8.65;;
56321;SDS011;42227;6.376;-10.782;2022-10-16T09:26:43;11.30;;;5.57;;
56321;SDS011;42227;6.376;-10.782;2022-10-16T09:29:15;6.80;;;4.97;;
56321;SDS011;42227;6.376;-10.782;2022-10-16T09:31:45;8.18;;;5.10;;
56321;SDS011;42227;6.376;-10.782;2022-10-16T09:37:00;10.02;;;4.88;;
56321;SDS011;42227;6.376;-10.782;2022-10-16T09:39:41;14.50;;;5.97;;
56321;SDS011;42227;6.376;-10.782;2022-10-16T09:42:19;10.60;;;5.22;;
56321;SDS011;42227;6.376;-10.782;2022-10-16T09:44:58;11.82;;;5.85;;
56321;SDS011;42227;6.376;-10.782;2022-10-16T09:47:27;10.20;;;6.45;;
56321;SDS011;42227;6.376;-10.782;2022-10-16T09:50:04;9.73;;;5.88;;
56321;SDS011;42227;6.376;-10.782;2022-10-16T09:52:46;6.93;;;5.35;;
56321;SDS011;42227;6.376;-10.782;2022-10-16T09:55:16;9.52;;;5.07;;
56321;SDS011;42227;6.376;-10.782;2022-10-16T09:57:49;10.50;;;5.45;;
56321;SDS011;42227;6.376;-10.782;2022-10-16T10:00:19;10.40;;;5.43;;
56321;SDS011;42227;6.376;-10.782;2022-10-16T10:02:48;8.15;;;5.00;;
56321;SDS011;42227;6.376;-10.782;2022-10-16T10:05:24;8.25;;;4.10;;
56321;SDS011;42227;6.376;-10.782;2022-10-16T10:07:59;10.10;;;4.63;;
56321;SDS011;42227;6.376;-10.782;2022-10-16T10:10:31;6.93;;;4.25;;
56321;SDS011;42227;6.376;-10.782;2022-10-16T10:13:01;6.83;;;3.20;;
56321;SDS011;42227;6.376;-10.782;2022-10-16T10:15:33;11.40;;;3.38;;
56321;SDS011;42227;6.376;-10.782;2022-10-16T10:18:15;5.90;;;3.67;;
56321;SDS011;42227;6.376;-10.782;2022-10-16T10:21:00;6.82;;;2.65;;
56321;SDS011;42227;6.376;-10.782;2022-10-16T10:23:34;7.50;;;3.15;;
56321;SDS011;42227;6.376;-10.782;2022-10-16T10:28:42;5.63;;;3.25;;
56321;SDS011;42227;6.376;-10.782;2022-10-16T10:37:10;6.43;;;3.33;;
56321;SDS011;42227;6.376;-10.782;2022-10-16T10:39:48;3.90;;;3.28;;
56321;SDS011;42227;6.376;-10.782;2022-10-16T10:50:49;6.22;;;2.97;;
56321;SDS011;42227;6.376;-10.782;2022-10-16T10:53:38;4.00;;;3.17;;
56321;SDS011;42227;6.376;-10.782;2022-10-16T10:56:23;4.68;;;2.75;;
56321;SDS011;42227;6.376;-10.782;2022-10-16T11:09:57;5.55;;;3.38;;
56321;SDS011;42227;6.376;-10.782;2022-10-16T11:12:58;8.88;;;4.85;;
56321;SDS011;42227;6.376;-10.782;2022-10-16T11:15:37;6.75;;;3.03;;
56321;SDS011;42227;6.376;-10.782;2022-10-16T11:21:08;6.97;;;3.80;;
56321;SDS011;42227;6.376;-10.782;2022-10-16T11:23:53;7.57;;;4.00;;
56321;SDS011;42227;6.376;-10.782;2022-10-16T11:26:30;12.27;;;4.82;;
56321;SDS011;42227;6.376;-10.782;2022-10-16T11:29:03;12.75;;;5.10;;
56321;SDS011;42227;6.376;-10.782;2022-10-16T11:31:46;8.13;;;4.68;;
56321;SDS011;42227;6.376;-10.782;2022-10-16T11:34:39;10.07;;;5.22;;
56321;SDS011;42227;6.376;-10.782;2022-10-16T11:37:17;11.40;;;5.35;;
56321;SDS011;42227;6.376;-10.782;2022-10-16T11:39:53;10.15;;;5.45;;
56321;SDS011;42227;6.376;-10.782;2022-10-16T11:42:32;6.40;;;4.30;;
56321;SDS011;42227;6.376;-10.782;2022-10-16T11:53:23;6.93;;;5.07;;
56321;SDS011;42227;6.376;-10.782;2022-10-16T11:56:26;10.18;;;6.47;;
56321;SDS011;42227;6.376;-10.782;2022-10-16T11:58:59;10.80;;;4.37;;
56321;SDS011;42227;6.376;-10.782;2022-10-16T12:01:44;7.78;;;4.82;;
56321;SDS011;42227;6.376;-10.782;2022-10-16T12:06:55;10.48;;;4.10;;
56321;SDS011;42227;6.376;-10.782;2022-10-16T12:09:37;6.00;;;3.55;;
56321;SDS011;42227;6.376;-10.782;2022-10-16T12:15:25;10.32;;;4.82;;
56321;SDS011;42227;6.376;-10.782;2022-10-16T12:18:23;15.02;;;5.10;;
56321;SDS011;42227;6.376;-10.782;2022-10-16T12:20:58;8.75;;;4.75;;
56321;SDS011;42227;6.376;-10.782;2022-10-16T12:23:27;7.85;;;3.95;;
56321;SDS011;42227;6.376;-10.782;2022-10-16T12:25:56;7.70;;;4.30;;
56321;SDS011;42227;6.376;-10.782;2022-10-16T12:28:27;9.15;;;4.07;;
56321;SDS011;42227;6.376;-10.782;2022-10-16T12:31:00;7.40;;;3.63;;
56321;SDS011;42227;6.376;-10.782;2022-10-16T12:33:31;13.77;;;4.60;;
56321;SDS011;42227;6.376;-10.782;2022-10-16T12:36:13;8.00;;;4.50;;
56321;SDS011;42227;6.376;-10.782;2022-10-16T12:38:53;8.32;;;4.57;;
56321;SDS011;42227;6.376;-10.782;2022-10-16T12:41:29;11.48;;;4.93;;
56321;SDS011;42227;6.376;-10.782;2022-10-16T12:43:59;5.93;;;4.60;;
56321;SDS011;42227;6.376;-10.782;2022-10-16T12:51:42;11.35;;;4.50;;
56321;SDS011;42227;6.376;-10.782;2022-10-16T12:56:58;6.72;;;3.92;;
56321;SDS011;42227;6.376;-10.782;2022-10-16T12:59:42;9.35;;;3.60;;
56321;SDS011;42227;6.376;-10.782;2022-10-16T13:05:30;10.95;;;4.45;;
56321;SDS011;42227;6.376;-10.782;2022-10-16T13:08:23;11.43;;;4.18;;
56321;SDS011;42227;6.376;-10.782;2022-10-16T13:11:01;9.00;;;4.97;;
56321;SDS011;42227;6.376;-10.782;2022-10-16T13:30:12;8.63;;;3.85;;
56321;SDS011;42227;6.376;-10.782;2022-10-16T13:32:46;7.10;;;4.47;;
56321;SDS011;42227;6.376;-10.782;2022-10-16T13:35:24;6.93;;;4.10;;
56321;SDS011;42227;6.376;-10.782;2022-10-16T13:38:15;11.32;;;4.65;;
56321;SDS011;42227;6.376;-10.782;2022-10-16T13:40:55;5.47;;;3.50;;
56321;SDS011;42227;6.376;-10.782;2022-10-16T13:46:04;6.90;;;3.97;;
56321;SDS011;42227;6.376;-10.782;2022-10-16T13:48:37;8.75;;;5.47;;
56321;SDS011;42227;6.376;-10.782;2022-10-16T13:51:16;7.55;;;4.47;;
56321;SDS011;42227;6.376;-10.782;2022-10-16T13:53:46;3.97;;;3.53;;
56321;SDS011;42227;6.376;-10.782;2022-10-16T13:56:16;8.10;;;4.55;;
56321;SDS011;42227;6.376;-10.782;2022-10-16T14:01:26;9.65;;;5.82;;
56321;SDS011;42227;6.376;-10.782;2022-10-16T14:04:05;14.55;;;4.88;;
56321;SDS011;42227;6.376;-10.782;2022-10-16T14:06:36;4.95;;;4.07;;
56321;SDS011;42227;6.376;-10.782;2022-10-16T14:09:29;7.97;;;3.58;;
56321;SDS011;42227;6.376;-10.782;2022-10-16T14:11:58;7.55;;;3.97;;
56321;SDS011;42227;6.376;-10.782;2022-10-16T14:15:02;11.75;;;4.35;;
56321;SDS011;42227;6.376;-10.782;2022-10-16T14:19:55;7.00;;;3.05;;
56321;SDS011;42227;6.376;-10.782;2022-10-16T14:22:38;9.40;;;3.72;;
56321;SDS011;42227;6.376;-10.782;2022-10-16T14:30:35;9.55;;;3.45;;
56321;SDS011;42227;6.376;-10.782;2022-10-16T14:33:19;10.15;;;4.22;;
56321;SDS011;42227;6.376;-10.782;2022-10-16T14:36:14;7.15;;;3.67;;
56321;SDS011;42227;6.376;-10.782;2022-10-16T14:38:55;15.80;;;4.10;;
56321;SDS011;42227;6.376;-10.782;2022-10-16T14:41:30;11.30;;;4.00;;
56321;SDS011;42227;6.376;-10.782;2022-10-16T14:44:09;6.57;;;4.35;;
56321;SDS011;42227;6.376;-10.782;2022-10-16T14:46:40;9.57;;;5.03;;
56321;SDS011;42227;6.376;-10.782;2022-10-16T14:51:38;15.20;;;4.88;;
56321;SDS011;42227;6.376;-10.782;2022-10-16T14:54:08;11.35;;;3.42;;
56321;SDS011;42227;6.376;-10.782;2022-10-16T14:59:36;10.18;;;6.28;;
56321;SDS011;42227;6.376;-10.782;2022-10-16T15:04:56;7.85;;;4.57;;
56321;SDS011;42227;6.376;-10.782;2022-10-16T15:07:25;4.25;;;3.28;;
56321;SDS011;42227;6.376;-10.782;2022-10-16T15:09:54;7.50;;;4.13;;
56321;SDS011;42227;6.376;-10.782;2022-10-16T15:12:22;16.95;;;4.60;;
56321;SDS011;42227;6.376;-10.782;2022-10-16T15:14:50;15.43;;;4.32;;
56321;SDS011;42227;6.376;-10.782;2022-10-16T15:17:18;8.20;;;4.10;;
56321;SDS011;42227;6.376;-10.782;2022-10-16T15:19:48;10.10;;;3.90;;
56321;SDS011;42227;6.376;-10.782;2022-10-16T15:22:16;9.68;;;3.97;;
56321;SDS011;42227;6.376;-10.782;2022-10-16T15:24:44;9.18;;;4.35;;
56321;SDS011;42227;6.376;-10.782;2022-10-16T15:27:12;4.72;;;2.97;;
56321;SDS011;42227;6.376;-10.782;2022-10-16T15:29:41;6.95;;;3.38;;
56321;SDS011;42227;6.376;-10.782;2022-10-16T15:32:10;10.55;;;4.90;;
56321;SDS011;42227;6.376;-10.782;2022-10-16T15:34:38;14.45;;;3.40;;
56321;SDS011;42227;6.376;-10.782;2022-10-16T15:37:06;6.10;;;3.15;;
56321;SDS011;42227;6.376;-10.782;2022-10-16T15:39:35;7.70;;;3.55;;
56321;SDS011;42227;6.376;-10.782;2022-10-16T15:42:07;7.15;;;3.42;;
56321;SDS011;42227;6.376;-10.782;2022-10-16T15:44:35;7.57;;;4.30;;
56321;SDS011;42227;6.376;-10.782;2022-10-16T15:47:03;10.60;;;3.60;;
56321;SDS011;42227;6.376;-10.782;2022-10-16T15:49:31;8.27;;;4.22;;
56321;SDS011;42227;6.376;-10.782;2022-10-16T15:51:59;7.80;;;3.70;;
56321;SDS011;42227;6.376;-10.782;2022-10-16T15:54:28;6.95;;;3.53;;
56321;SDS011;42227;6.376;-10.782;2022-10-16T15:56:56;6.57;;;3.45;;
56321;SDS011;42227;6.376;-10.782;2022-10-16T15:59:24;8.68;;;4.30;;
56321;SDS011;42227;6.376;-10.782;2022-10-16T16:01:52;8.10;;;3.83;;
56321;SDS011;42227;6.376;-10.782;2022-10-16T16:04:20;7.00;;;3.00;;
56321;SDS011;42227;6.376;-10.782;2022-10-16T16:07:09;7.00;;;3.25;;
56321;SDS011;42227;6.376;-10.782;2022-10-16T16:09:37;8.55;;;4.53;;
56321;SDS011;42227;6.376;-10.782;2022-10-16T16:12:05;6.40;;;3.90;;
56321;SDS011;42227;6.376;-10.782;2022-10-16T16:14:34;4.82;;;3.40;;
56321;SDS011;42227;6.376;-10.782;2022-10-16T16:17:02;10.00;;;3.95;;
56321;SDS011;42227;6.376;-10.782;2022-10-16T16:19:30;7.15;;;3.78;;
56321;SDS011;42227;6.376;-10.782;2022-10-16T16:21:58;11.43;;;4.35;;
56321;SDS011;42227;6.376;-10.782;2022-10-16T16:24:27;10.93;;;4.28;;
56321;SDS011;42227;6.376;-10.782;2022-10-16T16:26:55;6.82;;;4.53;;
56321;SDS011;42227;6.376;-10.782;2022-10-16T16:29:23;8.00;;;4.10;;
56321;SDS011;42227;6.376;-10.782;2022-10-16T16:31:51;9.07;;;3.50;;
56321;SDS011;42227;6.376;-10.782;2022-10-16T16:34:19;5.68;;;3.35;;
56321;SDS011;42227;6.376;-10.782;2022-10-16T16:36:48;7.15;;;3.70;;
56321;SDS011;42227;6.376;-10.782;2022-10-16T16:39:16;30.48;;;4.22;;
56321;SDS011;42227;6.376;-10.782;2022-10-16T16:41:45;14.98;;;4.78;;
56321;SDS011;42227;6.376;-10.782;2022-10-16T16:44:13;11.40;;;4.75;;
56321;SDS011;42227;6.376;-10.782;2022-10-16T16:46:43;8.88;;;4.00;;
56321;SDS011;42227;6.376;-10.782;2022-10-16T16:49:12;11.55;;;3.80;;
56321;SDS011;42227;6.376;-10.782;2022-10-16T16:51:41;9.15;;;3.78;;
56321;SDS011;42227;6.376;-10.782;2022-10-16T16:54:10;5.70;;;3.70;;
56321;SDS011;42227;6.376;-10.782;2022-10-16T16:56:39;9.35;;;3.58;;
56321;SDS011;42227;6.376;-10.782;2022-10-16T16:59:15;6.47;;;3.28;;
56321;SDS011;42227;6.376;-10.782;2022-10-16T17:01:46;6.63;;;4.10;;
56321;SDS011;42227;6.376;-10.782;2022-10-16T17:04:21;6.20;;;3.53;;
56321;SDS011;42227;6.376;-10.782;2022-10-16T17:06:49;12.63;;;3.90;;
56321;SDS011;42227;6.376;-10.782;2022-10-16T17:09:19;11.13;;;3.75;;
56321;SDS011;42227;6.376;-10.782;2022-10-16T17:11:48;10.48;;;3.75;;
56321;SDS011;42227;6.376;-10.782;2022-10-16T17:14:16;7.78;;;4.22;;
56321;SDS011;42227;6.376;-10.782;2022-10-16T17:16:44;6.05;;;3.80;;
56321;SDS011;42227;6.376;-10.782;2022-10-16T17:19:14;6.13;;;4.50;;